Time;durP1;ratioP1;P1;durP2;ratioP2;P2;SDS_P1;SDS_P2;PMS_P1;PMS_P2;Temp;Humidity;BMP_temperature;BMP_pressure;BME280_temperature;BME280_humidity;BME280_pressure;Samples;Min_cycle;Max_cycle;Signal;HPM_P1;HPM_P2
2022/03/15 00:00:10;;;;;;;2.50;2.30;;;;;;;;;;5117935;28;20203;-53
2022/03/15 00:02:37;;;;;;;2.13;1.98;;;;;;;;;;5117949;28;20203;-53
2022/03/15 00:05:05;;;;;;;2.20;2.00;;;;;;;;;;5118367;28;20230;-53
2022/03/15 00:07:34;;;;;;;2.33;2.13;;;;;;;;;;5118278;28;20198;-53
2022/03/15 00:10:01;;;;;;;2.20;2.00;;;;;;;;;;5118755;28;20214;-53
2022/03/15 00:12:29;;;;;;;2.30;2.10;;;;;;;;;;5118448;28;20203;-53
2022/03/15 00:14:56;;;;;;;2.35;2.05;;;;;;;;;;5117574;28;20195;-53
2022/03/15 00:17:24;;;;;;;2.28;2.08;;;;;;;;;;5117632;28;20211;-53
2022/03/15 00:19:51;;;;;;;2.20;2.00;;;;;;;;;;5117446;28;20491;-53
2022/03/15 00:22:19;;;;;;;2.25;2.05;;;;;;;;;;5117674;28;20580;-53
2022/03/15 00:24:48;;;;;;;2.20;1.95;;;;;;;;;;5116990;28;20211;-54
2022/03/15 00:27:15;;;;;;;2.40;2.20;;;;;;;;;;5117751;28;20713;-53
2022/03/15 00:29:43;;;;;;;2.33;2.00;;;;;;;;;;5118099;28;20251;-53
2022/03/15 00:32:16;;;;;;;2.20;2.00;;;;;;;;;;5117202;28;20286;-53
2022/03/15 00:34:43;;;;;;;2.42;2.10;;;;;;;;;;5117640;28;20681;-53
2022/03/15 00:37:11;;;;;;;2.28;2.08;;;;;;;;;;5097561;28;20199;-53
2022/03/15 00:39:38;;;;;;;2.45;2.15;;;;;;;;;;5097281;28;20238;-53
2022/03/15 00:42:07;;;;;;;2.53;2.33;;;;;;;;;;5097355;28;20222;-53
2022/03/15 00:44:35;;;;;;;2.10;1.90;;;;;;;;;;5097337;28;20468;-60
2022/03/15 00:47:04;;;;;;;2.20;2.00;;;;;;;;;;5116041;28;20214;-53
2022/03/15 00:49:32;;;;;;;2.53;2.33;;;;;;;;;;5117659;28;20199;-53
2022/03/15 00:52:01;;;;;;;2.25;2.05;;;;;;;;;;5117413;28;20608;-53
2022/03/15 00:54:28;;;;;;;2.20;2.00;;;;;;;;;;5117356;28;20249;-53
2022/03/15 00:56:57;;;;;;;2.50;2.20;;;;;;;;;;5117566;28;20234;-53
2022/03/15 00:59:25;;;;;;;2.25;2.05;;;;;;;;;;5116619;28;20257;-53
2022/03/15 01:01:53;;;;;;;2.92;2.00;;;;;;;;;;5118193;28;20195;-53
2022/03/15 01:04:21;;;;;;;1.95;1.85;;;;;;;;;;5117252;28;20202;-53
2022/03/15 01:06:48;;;;;;;2.08;1.90;;;;;;;;;;5116668;28;20225;-53
2022/03/15 01:09:16;;;;;;;2.40;2.20;;;;;;;;;;5116607;28;20198;-53
2022/03/15 01:11:43;;;;;;;2.30;1.95;;;;;;;;;;5117351;28;20217;-53
2022/03/15 01:14:10;;;;;;;2.33;2.13;;;;;;;;;;5116536;28;20209;-53
2022/03/15 01:16:40;;;;;;;2.20;2.00;;;;;;;;;;5117312;28;20203;-53
2022/03/15 01:19:08;;;;;;;2.40;2.20;;;;;;;;;;5117521;28;20605;-53
2022/03/15 01:21:39;;;;;;;2.22;2.03;;;;;;;;;;5117768;28;20289;-53
2022/03/15 01:24:08;;;;;;;2.42;2.22;;;;;;;;;;5117052;28;20267;-53
2022/03/15 01:26:35;;;;;;;1.92;1.80;;;;;;;;;;5118017;28;20214;-53
2022/03/15 01:29:02;;;;;;;2.20;2.00;;;;;;;;;;5117132;28;20226;-53
2022/03/15 01:31:30;;;;;;;2.10;1.90;;;;;;;;;;5117844;28;20605;-53
2022/03/15 01:33:59;;;;;;;2.50;2.28;;;;;;;;;;5117493;28;20210;-53
2022/03/15 01:36:27;;;;;;;2.33;2.10;;;;;;;;;;5117897;28;20203;-53
2022/03/15 01:38:54;;;;;;;2.40;2.00;;;;;;;;;;5117159;28;20227;-53
2022/03/15 01:41:22;;;;;;;3.05;2.17;;;;;;;;;;5117166;28;20205;-53
2022/03/15 01:43:49;;;;;;;2.10;1.90;;;;;;;;;;5117457;28;20210;-53
2022/03/15 01:46:16;;;;;;;2.42;2.08;;;;;;;;;;5117351;28;20222;-53
2022/03/15 01:48:44;;;;;;;2.40;2.20;;;;;;;;;;5117250;28;20210;-53
2022/03/15 01:51:15;;;;;;;2.22;2.03;;;;;;;;;;5108849;28;20213;-53
2022/03/15 01:53:43;;;;;;;2.25;2.05;;;;;;;;;;5117527;28;20211;-52
2022/03/15 01:56:10;;;;;;;2.10;1.90;;;;;;;;;;5116604;28;20235;-52
2022/03/15 01:58:37;;;;;;;1.90;1.80;;;;;;;;;;5117675;28;20618;-53
2022/03/15 02:01:06;;;;;;;1.98;1.88;;;;;;;;;;5117332;28;20215;-53
2022/03/15 02:03:34;;;;;;;2.95;2.03;;;;;;;;;;5119920;28;20229;-53
2022/03/15 02:06:05;;;;;;;2.53;2.05;;;;;;;;;;5120569;28;20195;-53
2022/03/15 02:08:35;;;;;;;1.90;1.80;;;;;;;;;;5120589;28;20234;-53
2022/03/15 02:11:02;;;;;;;2.05;1.95;;;;;;;;;;5120490;28;20203;-53
2022/03/15 02:13:30;;;;;;;2.28;2.08;;;;;;;;;;5120559;28;20203;-52
2022/03/15 02:15:57;;;;;;;1.95;1.85;;;;;;;;;;5120471;28;20612;-53
2022/03/15 02:18:26;;;;;;;2.80;2.00;;;;;;;;;;5120159;28;20233;-53
2022/03/15 02:20:55;;;;;;;2.00;1.90;;;;;;;;;;5121127;28;20468;-52
2022/03/15 02:23:23;;;;;;;2.40;2.08;;;;;;;;;;5120380;28;20500;-53
2022/03/15 02:25:52;;;;;;;2.15;1.95;;;;;;;;;;5120117;28;20253;-53
2022/03/15 02:28:19;;;;;;;2.03;1.88;;;;;;;;;;5119921;28;20202;-53
2022/03/15 02:30:47;;;;;;;2.03;1.92;;;;;;;;;;5119902;28;20199;-53
2022/03/15 02:33:14;;;;;;;1.90;1.80;;;;;;;;;;5119878;28;20203;-53
2022/03/15 02:35:42;;;;;;;1.90;1.80;;;;;;;;;;5119566;28;20206;-53
2022/03/15 02:38:10;;;;;;;1.80;1.70;;;;;;;;;;5119788;28;20203;-53
2022/03/15 02:40:38;;;;;;;2.03;1.88;;;;;;;;;;5120498;28;20211;-53
2022/03/15 02:43:06;;;;;;;2.00;1.80;;;;;;;;;;5119942;28;20234;-53
2022/03/15 02:45:33;;;;;;;2.00;1.90;;;;;;;;;;5119683;28;20597;-52
2022/03/15 02:48:00;;;;;;;1.92;1.77;;;;;;;;;;5120113;28;20203;-53
2022/03/15 02:50:28;;;;;;;2.00;1.90;;;;;;;;;;5119219;28;20210;-53
2022/03/15 02:52:55;;;;;;;2.15;1.88;;;;;;;;;;5119827;28;20199;-53
2022/03/15 02:55:25;;;;;;;2.20;2.00;;;;;;;;;;5118463;28;20235;-53
2022/03/15 02:57:52;;;;;;;2.40;2.20;;;;;;;;;;5119773;28;20706;-53
2022/03/15 03:00:21;;;;;;;2.42;1.80;;;;;;;;;;5119602;28;20223;-53
2022/03/15 03:02:50;;;;;;;2.10;1.90;;;;;;;;;;5119660;28;20203;-53
2022/03/15 03:05:17;;;;;;;2.03;1.92;;;;;;;;;;5120074;28;20196;-53
2022/03/15 03:07:45;;;;;;;2.28;2.08;;;;;;;;;;5119996;28;20203;-53
2022/03/15 03:10:15;;;;;;;2.22;2.00;;;;;;;;;;5119704;28;20210;-53
2022/03/15 03:12:44;;;;;;;2.28;2.08;;;;;;;;;;5119704;28;20207;-53
2022/03/15 03:15:12;;;;;;;2.30;2.10;;;;;;;;;;5111235;28;20281;-53
2022/03/15 03:17:41;;;;;;;2.15;1.88;;;;;;;;;;5119346;28;20203;-53
2022/03/15 03:20:09;;;;;;;2.17;2.05;;;;;;;;;;5119101;28;20237;-53
2022/03/15 03:22:37;;;;;;;1.90;1.80;;;;;;;;;;5118315;28;20211;-53
2022/03/15 03:25:05;;;;;;;2.20;1.80;;;;;;;;;;5118160;28;20203;-53
2022/03/15 03:27:32;;;;;;;2.10;2.00;;;;;;;;;;5118654;28;20209;-53
2022/03/15 03:30:03;;;;;;;2.40;2.20;;;;;;;;;;5118630;28;20578;-53
2022/03/15 03:32:31;;;;;;;8.70;2.20;;;;;;;;;;5118491;28;20239;-53
2022/03/15 03:34:58;;;;;;;2.20;2.00;;;;;;;;;;5117679;28;20272;-53
2022/03/15 03:37:26;;;;;;;2.80;2.15;;;;;;;;;;5118516;28;20203;-53
2022/03/15 03:39:54;;;;;;;2.25;2.05;;;;;;;;;;5117725;28;20341;-53
2022/03/15 03:42:22;;;;;;;2.03;1.92;;;;;;;;;;5118232;28;20261;-53
2022/03/15 03:44:49;;;;;;;2.42;1.80;;;;;;;;;;5117662;28;20221;-53
2022/03/15 03:47:18;;;;;;;3.33;2.10;;;;;;;;;;5116441;28;20199;-53
2022/03/15 03:49:45;;;;;;;2.05;1.95;;;;;;;;;;5117954;28;20203;-53
2022/03/15 03:52:13;;;;;;;2.22;2.03;;;;;;;;;;5117657;28;20194;-53
2022/03/15 03:54:41;;;;;;;1.90;1.80;;;;;;;;;;5118107;28;20283;-53
2022/03/15 03:57:08;;;;;;;2.05;1.95;;;;;;;;;;5116357;28;20206;-53
2022/03/15 03:59:36;;;;;;;2.08;1.98;;;;;;;;;;5118059;28;20233;-53
2022/03/15 04:02:03;;;;;;;2.03;1.88;;;;;;;;;;5117455;28;20658;-53
2022/03/15 04:04:32;;;;;;;2.00;1.90;;;;;;;;;;5118843;28;20309;-53
2022/03/15 04:07:06;;;;;;;2.10;2.00;;;;;;;;;;5117644;28;20582;-53
2022/03/15 04:09:34;;;;;;;2.05;1.88;;;;;;;;;;5118536;28;20297;-53
2022/03/15 04:12:02;;;;;;;1.98;1.80;;;;;;;;;;5118243;28;20617;-53
2022/03/15 04:14:30;;;;;;;2.28;2.08;;;;;;;;;;5118120;28;20210;-53
2022/03/15 04:16:57;;;;;;;2.53;2.33;;;;;;;;;;5117668;28;20230;-53
2022/03/15 04:19:24;;;;;;;2.20;2.00;;;;;;;;;;5097422;28;20607;-53
2022/03/15 04:21:53;;;;;;;2.10;2.00;;;;;;;;;;5097781;28;20214;-53
2022/03/15 04:24:21;;;;;;;2.30;2.17;;;;;;;;;;5098076;28;20223;-53
2022/03/15 04:26:48;;;;;;;2.10;1.90;;;;;;;;;;5111825;28;20199;-53
2022/03/15 04:29:15;;;;;;;2.10;2.00;;;;;;;;;;5117645;28;20199;-53
2022/03/15 04:31:43;;;;;;;2.10;2.00;;;;;;;;;;5117621;28;20203;-53
2022/03/15 04:34:10;;;;;;;2.33;1.80;;;;;;;;;;5117953;28;20209;-53
2022/03/15 04:36:40;;;;;;;2.03;1.90;;;;;;;;;;5117817;28;20210;-53
2022/03/15 04:39:10;;;;;;;3.03;1.70;;;;;;;;;;5117805;28;20230;-53
2022/03/15 04:41:38;;;;;;;2.30;2.10;;;;;;;;;;5117722;28;20202;-53
2022/03/15 04:44:05;;;;;;;2.08;1.88;;;;;;;;;;5117641;28;20202;-53
2022/03/15 04:46:33;;;;;;;1.88;1.77;;;;;;;;;;5117320;28;20226;-53
2022/03/15 04:49:00;;;;;;;2.35;2.15;;;;;;;;;;5116959;28;20198;-53
2022/03/15 04:51:28;;;;;;;2.05;1.90;;;;;;;;;;5117549;28;20203;-53
2022/03/15 04:53:55;;;;;;;2.13;1.92;;;;;;;;;;5116925;28;20230;-52
2022/03/15 04:56:24;;;;;;;2.10;1.90;;;;;;;;;;5116928;28;20199;-53
2022/03/15 04:58:52;;;;;;;2.20;2.00;;;;;;;;;;5117026;28;20215;-53
2022/03/15 05:01:19;;;;;;;2.10;1.95;;;;;;;;;;5116088;28;20202;-53
2022/03/15 05:03:47;;;;;;;2.08;1.98;;;;;;;;;;5116927;28;20203;-53
2022/03/15 05:06:15;;;;;;;1.80;1.70;;;;;;;;;;5116817;28;20199;-53
2022/03/15 05:08:42;;;;;;;2.00;1.90;;;;;;;;;;5117087;28;20277;-53
2022/03/15 05:11:08;;;;;;;1.92;1.83;;;;;;;;;;5116726;28;20198;-52
2022/03/15 05:13:39;;;;;;;1.75;1.65;;;;;;;;;;5117189;28;20199;-54
2022/03/15 05:16:08;;;;;;;1.80;1.70;;;;;;;;;;5117034;28;20203;-53
2022/03/15 05:18:40;;;;;;;2.40;2.20;;;;;;;;;;5117739;28;20584;-53
2022/03/15 05:21:08;;;;;;;1.80;1.70;;;;;;;;;;5116537;28;20690;-53
2022/03/15 05:23:35;;;;;;;2.15;2.00;;;;;;;;;;5117124;28;20242;-53
2022/03/15 05:26:03;;;;;;;2.08;1.92;;;;;;;;;;5116770;28;20638;-53
2022/03/15 05:28:30;;;;;;;1.85;1.75;;;;;;;;;;5116559;28;20209;-53
2022/03/15 05:30:59;;;;;;;2.17;2.08;;;;;;;;;;5116391;28;20207;-53
2022/03/15 05:33:28;;;;;;;1.83;1.73;;;;;;;;;;5116544;28;20213;-53
2022/03/15 05:35:55;;;;;;;2.10;1.90;;;;;;;;;;5115419;28;20287;-53
2022/03/15 05:38:23;;;;;;;2.33;1.90;;;;;;;;;;5119169;28;20605;-53
2022/03/15 05:40:50;;;;;;;1.90;1.80;;;;;;;;;;5120405;28;20223;-53
2022/03/15 05:43:19;;;;;;;2.30;2.10;;;;;;;;;;5120532;28;20202;-53
2022/03/15 05:45:46;;;;;;;2.20;1.80;;;;;;;;;;5119825;28;20199;-53
2022/03/15 05:48:15;;;;;;;2.95;2.00;;;;;;;;;;5118895;28;20210;-53
2022/03/15 05:50:42;;;;;;;1.75;1.58;;;;;;;;;;5118346;28;20199;-53
2022/03/15 05:53:10;;;;;;;2.15;2.03;;;;;;;;;;5118730;28;20207;-53
2022/03/15 05:55:37;;;;;;;2.80;1.80;;;;;;;;;;5118139;28;20223;-53
2022/03/15 05:58:05;;;;;;;2.83;1.90;;;;;;;;;;5098309;28;20204;-53
2022/03/15 06:00:33;;;;;;;2.08;1.92;;;;;;;;;;5098306;28;20326;-53
2022/03/15 06:03:00;;;;;;;3.35;2.20;;;;;;;;;;5098168;28;20204;-53
2022/03/15 06:05:30;;;;;;;2.05;1.95;;;;;;;;;;5097746;28;20203;-54
2022/03/15 06:07:58;;;;;;;2.20;2.00;;;;;;;;;;5102781;28;20207;-53
2022/03/15 06:10:28;;;;;;;2.10;1.75;;;;;;;;;;5117639;28;20191;-52
2022/03/15 06:12:56;;;;;;;2.42;1.88;;;;;;;;;;5117981;28;20299;-53
2022/03/15 06:15:23;;;;;;;3.05;1.88;;;;;;;;;;5117177;28;20260;-53
2022/03/15 06:17:52;;;;;;;2.03;1.83;;;;;;;;;;5117232;28;20198;-53
2022/03/15 06:20:20;;;;;;;1.98;1.60;;;;;;;;;;5116972;28;20272;-53
2022/03/15 06:22:49;;;;;;;1.80;1.70;;;;;;;;;;5116622;28;20264;-53
2022/03/15 06:25:16;;;;;;;2.00;1.83;;;;;;;;;;5114435;28;20610;-53
2022/03/15 06:27:44;;;;;;;2.35;1.90;;;;;;;;;;5117396;28;20232;-53
2022/03/15 06:30:12;;;;;;;2.60;1.88;;;;;;;;;;5109643;28;20202;-53
2022/03/15 06:32:40;;;;;;;2.03;1.83;;;;;;;;;;5117778;28;20781;-53
2022/03/15 06:35:09;;;;;;;2.47;1.98;;;;;;;;;;5117590;28;20211;-53
2022/03/15 06:37:40;;;;;;;2.10;1.90;;;;;;;;;;5117187;28;20311;-53
2022/03/15 06:40:10;;;;;;;1.85;1.75;;;;;;;;;;5116436;28;20280;-53
2022/03/15 06:42:38;;;;;;;2.35;1.83;;;;;;;;;;5118010;28;20209;-53
2022/03/15 06:45:06;;;;;;;2.25;2.05;;;;;;;;;;5117013;28;20297;-52
2022/03/15 06:47:34;;;;;;;2.50;2.00;;;;;;;;;;5117245;28;20199;-53
2022/03/15 06:50:04;;;;;;;2.15;1.95;;;;;;;;;;5108939;28;20184;-52
2022/03/15 06:52:32;;;;;;;2.58;2.00;;;;;;;;;;5117817;28;20257;-53
2022/03/15 06:55:00;;;;;;;2.75;2.25;;;;;;;;;;5116478;28;20791;-53
2022/03/15 06:57:29;;;;;;;2.60;2.00;;;;;;;;;;5117298;28;20195;-52
2022/03/15 06:59:56;;;;;;;2.38;2.15;;;;;;;;;;5117314;28;20223;-53
2022/03/15 07:02:24;;;;;;;2.50;2.30;;;;;;;;;;5117129;28;20203;-53
2022/03/15 07:04:51;;;;;;;2.67;2.30;;;;;;;;;;5117750;28;20203;-53
2022/03/15 07:07:19;;;;;;;2.72;2.10;;;;;;;;;;5116880;28;20203;-53
2022/03/15 07:09:46;;;;;;;2.30;2.10;;;;;;;;;;5116520;28;20198;-53
2022/03/15 07:12:14;;;;;;;2.65;2.22;;;;;;;;;;5116506;28;20785;-53
2022/03/15 07:14:43;;;;;;;2.50;2.10;;;;;;;;;;5116262;28;20512;-53
2022/03/15 07:17:10;;;;;;;3.00;2.40;;;;;;;;;;5117135;28;20633;-53
2022/03/15 07:19:37;;;;;;;3.08;2.30;;;;;;;;;;5117114;28;20203;-53
2022/03/15 07:22:06;;;;;;;2.50;2.30;;;;;;;;;;5117132;28;20203;-53
2022/03/15 07:24:33;;;;;;;3.70;2.58;;;;;;;;;;5116796;28;20203;-52
2022/03/15 07:27:01;;;;;;;3.10;2.55;;;;;;;;;;5116679;28;20213;-53
2022/03/15 07:29:28;;;;;;;2.47;2.28;;;;;;;;;;5116459;28;20209;-53
2022/03/15 07:31:57;;;;;;;2.60;2.40;;;;;;;;;;5116755;28;20195;-53
2022/03/15 07:34:25;;;;;;;2.53;2.13;;;;;;;;;;5116693;28;20194;-52
2022/03/15 07:36:52;;;;;;;3.83;2.50;;;;;;;;;;5116468;28;20638;-53
2022/03/15 07:39:20;;;;;;;2.70;2.40;;;;;;;;;;5117065;28;20214;-53
2022/03/15 07:41:48;;;;;;;2.65;2.40;;;;;;;;;;5117037;28;20227;-53
2022/03/15 07:44:16;;;;;;;3.30;2.30;;;;;;;;;;5116621;28;20264;-53
2022/03/15 07:46:48;;;;;;;2.80;2.50;;;;;;;;;;5116375;28;20206;-53
2022/03/15 07:49:17;;;;;;;2.42;2.22;;;;;;;;;;5115945;28;20202;-53
2022/03/15 07:51:45;;;;;;;2.55;2.25;;;;;;;;;;5115566;28;20206;-53
2022/03/15 07:54:13;;;;;;;2.55;2.30;;;;;;;;;;5116137;28;20234;-53
2022/03/15 07:56:40;;;;;;;3.38;2.22;;;;;;;;;;5116479;28;20199;-53
2022/03/15 07:59:08;;;;;;;2.30;2.10;;;;;;;;;;5115956;28;20202;-53
2022/03/15 08:01:36;;;;;;;3.50;2.58;;;;;;;;;;5115040;28;20260;-53
2022/03/15 08:04:04;;;;;;;2.95;2.42;;;;;;;;;;5116492;28;20202;-53
2022/03/15 08:06:35;;;;;;;2.67;2.30;;;;;;;;;;5116980;28;20214;-53
2022/03/15 08:09:02;;;;;;;3.67;2.63;;;;;;;;;;5116934;28;20213;-53
2022/03/15 08:11:30;;;;;;;2.75;2.40;;;;;;;;;;5116193;28;20199;-53
2022/03/15 08:13:58;;;;;;;3.28;2.50;;;;;;;;;;5115961;28;20202;-53
2022/03/15 08:16:26;;;;;;;3.00;2.78;;;;;;;;;;5116045;28;20203;-53
2022/03/15 08:18:54;;;;;;;3.05;2.75;;;;;;;;;;5115739;28;20263;-53
2022/03/15 08:21:22;;;;;;;3.45;2.22;;;;;;;;;;5116188;28;20219;-53
2022/03/15 08:23:54;;;;;;;2.53;2.33;;;;;;;;;;5116099;28;20756;-52
2022/03/15 08:26:24;;;;;;;2.70;2.50;;;;;;;;;;5115820;28;20206;-53
2022/03/15 08:28:52;;;;;;;2.40;2.20;;;;;;;;;;5115494;28;20243;-53
2022/03/15 08:31:20;;;;;;;2.60;2.40;;;;;;;;;;5116384;28;20225;-53
2022/03/15 08:33:47;;;;;;;2.70;2.22;;;;;;;;;;5114932;28;20210;-53
2022/03/15 08:36:15;;;;;;;2.40;2.20;;;;;;;;;;5115070;28;20214;-53
2022/03/15 08:38:43;;;;;;;3.28;2.50;;;;;;;;;;5114607;28;20203;-53
2022/03/15 08:41:11;;;;;;;3.22;2.55;;;;;;;;;;5115202;28;20317;-53
2022/03/15 08:43:39;;;;;;;3.15;2.50;;;;;;;;;;5115141;28;20554;-53
2022/03/15 08:46:06;;;;;;;3.10;2.50;;;;;;;;;;5115556;28;20217;-53
2022/03/15 08:48:34;;;;;;;3.45;2.83;;;;;;;;;;5115265;28;20572;-52
2022/03/15 08:51:02;;;;;;;3.13;2.55;;;;;;;;;;5115132;28;20199;-53
2022/03/15 08:53:32;;;;;;;3.22;2.63;;;;;;;;;;5115387;28;20202;-53
2022/03/15 08:55:59;;;;;;;2.80;2.58;;;;;;;;;;5114534;28;20522;-53
2022/03/15 08:58:28;;;;;;;3.58;2.42;;;;;;;;;;5114590;28;20210;-53
2022/03/15 09:00:55;;;;;;;3.95;2.63;;;;;;;;;;5115054;28;20230;-53
2022/03/15 09:03:24;;;;;;;2.97;2.45;;;;;;;;;;5116168;28;20263;-53
2022/03/15 09:05:51;;;;;;;3.15;2.25;;;;;;;;;;5114664;28;20203;-53
2022/03/15 09:08:19;;;;;;;2.88;2.65;;;;;;;;;;5114634;28;20207;-53
2022/03/15 09:10:47;;;;;;;3.95;2.55;;;;;;;;;;5115329;28;20191;-53
2022/03/15 09:13:15;;;;;;;2.92;2.63;;;;;;;;;;5119389;28;20492;-53
2022/03/15 09:15:44;;;;;;;3.88;2.65;;;;;;;;;;5120004;28;20199;-53
2022/03/15 09:18:12;;;;;;;2.50;2.30;;;;;;;;;;5119529;28;20206;-53
2022/03/15 09:20:42;;;;;;;2.55;2.35;;;;;;;;;;5119140;28;20727;-53
2022/03/15 09:23:09;;;;;;;2.75;2.42;;;;;;;;;;5120166;28;20523;-53
2022/03/15 09:25:37;;;;;;;4.00;2.63;;;;;;;;;;5119731;28;20578;-52
2022/03/15 09:28:04;;;;;;;3.25;2.60;;;;;;;;;;5119357;28;20477;-53
2022/03/15 09:30:32;;;;;;;3.53;2.58;;;;;;;;;;5118834;28;20210;-53
2022/03/15 09:33:01;;;;;;;3.28;2.75;;;;;;;;;;5118735;28;20203;-53
2022/03/15 09:35:29;;;;;;;2.90;2.60;;;;;;;;;;5118584;28;20203;-53
2022/03/15 09:37:56;;;;;;;3.85;2.65;;;;;;;;;;5118620;28;20610;-53
2022/03/15 09:40:26;;;;;;;3.10;2.58;;;;;;;;;;5118870;28;20203;-53
2022/03/15 09:42:59;;;;;;;4.13;2.75;;;;;;;;;;5118593;28;20483;-53
2022/03/15 09:45:30;;;;;;;3.13;2.83;;;;;;;;;;5118098;28;20203;-53
2022/03/15 09:47:58;;;;;;;2.90;2.70;;;;;;;;;;5118282;28;20724;-53
2022/03/15 09:50:27;;;;;;;4.22;2.63;;;;;;;;;;5117271;28;20582;-53
2022/03/15 09:52:56;;;;;;;3.22;2.78;;;;;;;;;;5118141;28;20597;-53
2022/03/15 09:55:24;;;;;;;4.00;2.80;;;;;;;;;;5118298;28;20238;-53
2022/03/15 09:57:52;;;;;;;3.97;2.70;;;;;;;;;;5117737;28;20207;-53
2022/03/15 10:00:20;;;;;;;4.00;3.70;;;;;;;;;;5116444;28;20206;-53
2022/03/15 10:02:48;;;;;;;5.38;4.88;;;;;;;;;;5117348;28;20237;-53
2022/03/15 10:05:16;;;;;;;6.30;5.70;;;;;;;;;;5116745;28;20198;-52
2022/03/15 10:07:44;;;;;;;6.03;5.43;;;;;;;;;;5116912;28;20207;-52
2022/03/15 10:10:13;;;;;;;6.15;5.03;;;;;;;;;;5109367;28;20230;-52
2022/03/15 10:12:40;;;;;;;8.27;5.32;;;;;;;;;;5118122;28;20199;-52
2022/03/15 10:15:12;;;;;;;7.25;5.63;;;;;;;;;;5117636;28;20687;-52
2022/03/15 10:17:43;;;;;;;7.95;6.68;;;;;;;;;;5117960;28;20202;-52
2022/03/15 10:20:11;;;;;;;26.05;21.23;;;;;;;;;;5118117;28;20210;-52
2022/03/15 10:22:39;;;;;;;21.35;16.70;;;;;;;;;;5118124;28;20227;-52
2022/03/15 10:25:08;;;;;;;19.55;15.30;;;;;;;;;;5117318;28;20209;-52
2022/03/15 10:27:36;;;;;;;17.15;14.00;;;;;;;;;;5117891;28;20199;-53
2022/03/15 10:30:04;;;;;;;17.20;14.00;;;;;;;;;;5118075;28;20557;-52
2022/03/15 10:32:31;;;;;;;16.02;13.65;;;;;;;;;;5118833;28;20206;-52
2022/03/15 10:35:08;;;;;;;16.95;14.73;;;;;;;;;;5117074;28;20206;-52
2022/03/15 10:37:36;;;;;;;16.65;13.20;;;;;;;;;;5117220;28;20210;-52
2022/03/15 10:40:04;;;;;;;15.38;13.35;;;;;;;;;;5117819;28;20551;-52
2022/03/15 10:42:33;;;;;;;15.30;13.52;;;;;;;;;;5115935;28;20373;-52
2022/03/15 10:45:00;;;;;;;15.30;12.65;;;;;;;;;;5116396;28;20207;-52
2022/03/15 10:47:28;;;;;;;14.68;12.98;;;;;;;;;;5116879;28;20199;-52
2022/03/15 10:49:56;;;;;;;18.85;12.70;;;;;;;;;;5115443;28;20210;-53
2022/03/15 10:52:31;;;;;;;16.42;12.77;;;;;;;;;;5115644;28;20195;-52
2022/03/15 10:55:09;;;;;;;14.32;12.77;;;;;;;;;;5114916;28;20234;-52
2022/03/15 10:57:46;;;;;;;13.75;11.38;;;;;;;;;;5114941;28;20198;-52
2022/03/15 11:00:14;;;;;;;13.57;11.32;;;;;;;;;;5115519;28;20204;-52
2022/03/15 11:02:43;;;;;;;14.13;11.35;;;;;;;;;;5116372;28;20233;-52
2022/03/15 11:05:10;;;;;;;14.98;11.50;;;;;;;;;;5115619;28;20211;-52
2022/03/15 11:07:41;;;;;;;12.50;10.95;;;;;;;;;;5115587;28;20206;-52
2022/03/15 11:10:13;;;;;;;12.65;11.32;;;;;;;;;;5116079;28;20213;-52
2022/03/15 11:12:57;;;;;;;12.43;11.10;;;;;;;;;;5115672;28;20191;-52
2022/03/15 11:15:30;;;;;;;12.88;11.18;;;;;;;;;;5115538;28;20293;-52
2022/03/15 11:17:58;;;;;;;12.43;10.27;;;;;;;;;;5114992;28;20264;-52
2022/03/15 11:20:27;;;;;;;10.98;9.70;;;;;;;;;;5114897;28;20260;-52
2022/03/15 11:22:55;;;;;;;10.90;9.75;;;;;;;;;;5115514;28;20577;-52
2022/03/15 11:25:23;;;;;;;12.75;10.27;;;;;;;;;;5114671;28;20199;-52
2022/03/15 11:27:53;;;;;;;10.80;9.68;;;;;;;;;;5115158;28;20207;-52
2022/03/15 11:30:21;;;;;;;10.93;9.80;;;;;;;;;;5115757;28;20199;-52
2022/03/15 11:32:51;;;;;;;12.10;9.45;;;;;;;;;;5113988;28;20198;-52
2022/03/15 11:35:22;;;;;;;11.48;10.15;;;;;;;;;;5112659;28;20291;-52
2022/03/15 11:37:50;;;;;;;9.90;8.90;;;;;;;;;;5114364;28;20202;-52
2022/03/15 11:40:18;;;;;;;11.60;8.95;;;;;;;;;;5114312;28;20214;-52
2022/03/15 11:42:48;;;;;;;13.05;8.50;;;;;;;;;;5114016;28;20223;-52
2022/03/15 11:45:19;;;;;;;9.32;8.43;;;;;;;;;;5114227;28;20772;-52
2022/03/15 11:47:49;;;;;;;8.95;8.05;;;;;;;;;;5114462;28;20199;-52
2022/03/15 11:50:22;;;;;;;8.57;7.68;;;;;;;;;;5113745;28;20546;-52
2022/03/15 11:52:54;;;;;;;11.02;8.20;;;;;;;;;;5114700;28;20474;-52
2022/03/15 11:55:26;;;;;;;9.07;8.18;;;;;;;;;;5113669;28;20625;-52
2022/03/15 11:57:56;;;;;;;8.63;7.78;;;;;;;;;;5113186;28;20242;-52
2022/03/15 12:00:31;;;;;;;8.25;7.43;;;;;;;;;;5112723;28;20191;-52
2022/03/15 12:02:59;;;;;;;8.45;7.65;;;;;;;;;;5113538;28;20225;-52
2022/03/15 12:05:28;;;;;;;8.18;7.32;;;;;;;;;;5114288;28;20202;-52
2022/03/15 12:08:13;;;;;;;8.18;7.15;;;;;;;;;;5114520;28;20199;-52
2022/03/15 12:10:41;;;;;;;9.43;7.35;;;;;;;;;;5113822;28;20631;-52
2022/03/15 12:13:14;;;;;;;9.23;7.43;;;;;;;;;;5113863;28;20209;-52
2022/03/15 12:15:44;;;;;;;7.53;6.43;;;;;;;;;;5113352;28;20745;-52
2022/03/15 12:18:23;;;;;;;7.93;7.00;;;;;;;;;;5113133;28;20207;-52
2022/03/15 12:21:08;;;;;;;7.00;6.30;;;;;;;;;;5112464;28;20491;-52
2022/03/15 12:23:42;;;;;;;6.95;6.32;;;;;;;;;;5113451;28;20230;-52
2022/03/15 12:26:23;;;;;;;7.05;6.35;;;;;;;;;;5113296;28;20213;-52
2022/03/15 12:28:57;;;;;;;7.88;6.18;;;;;;;;;;5114086;28;20209;-52
2022/03/15 12:31:35;;;;;;;6.68;5.75;;;;;;;;;;5113758;28;20198;-52
2022/03/15 12:34:03;;;;;;;6.13;5.50;;;;;;;;;;5114781;28;20203;-52
2022/03/15 12:36:39;;;;;;;6.85;5.65;;;;;;;;;;5113415;28;20501;-52
2022/03/15 12:39:10;;;;;;;6.47;5.88;;;;;;;;;;5113460;28;20233;-53
2022/03/15 12:41:37;;;;;;;6.50;5.45;;;;;;;;;;5112801;28;20215;-52
2022/03/15 12:44:05;;;;;;;8.65;5.63;;;;;;;;;;5114140;28;20205;-52
2022/03/15 12:46:33;;;;;;;7.72;5.80;;;;;;;;;;5113535;28;20199;-52
2022/03/15 12:49:06;;;;;;;6.88;5.07;;;;;;;;;;5113874;28;20710;-52
2022/03/15 12:51:38;;;;;;;6.82;4.75;;;;;;;;;;5114312;28;20203;-52
2022/03/15 12:54:07;;;;;;;6.45;4.65;;;;;;;;;;5114737;28;20205;-53
2022/03/15 12:56:42;;;;;;;5.43;4.72;;;;;;;;;;5113938;28;20205;-52
2022/03/15 12:59:17;;;;;;;6.25;4.55;;;;;;;;;;5114247;28;20194;-52
2022/03/15 13:01:47;;;;;;;6.63;5.97;;;;;;;;;;5114925;28;20232;-52
2022/03/15 13:04:15;;;;;;;7.65;6.95;;;;;;;;;;5114348;28;20245;-53
2022/03/15 13:06:45;;;;;;;7.47;6.75;;;;;;;;;;5113944;28;20218;-52
2022/03/15 13:09:13;;;;;;;7.82;7.10;;;;;;;;;;5114126;28;20303;-53
2022/03/15 13:11:48;;;;;;;6.70;6.00;;;;;;;;;;5114286;28;20209;-52
2022/03/15 13:14:16;;;;;;;7.85;6.82;;;;;;;;;;5113600;28;20204;-53
2022/03/15 13:16:46;;;;;;;7.60;6.45;;;;;;;;;;5112872;28;20218;-52
2022/03/15 13:19:14;;;;;;;6.68;6.07;;;;;;;;;;5113774;28;20510;-52
2022/03/15 13:21:41;;;;;;;7.13;5.82;;;;;;;;;;5112808;28;20207;-52
2022/03/15 13:24:10;;;;;;;7.05;5.97;;;;;;;;;;5113481;28;20194;-53
2022/03/15 13:26:39;;;;;;;7.38;6.20;;;;;;;;;;5113935;28;20203;-52
2022/03/15 13:29:09;;;;;;;6.43;5.60;;;;;;;;;;5113936;28;20203;-52
2022/03/15 13:31:37;;;;;;;6.25;5.65;;;;;;;;;;5114083;28;20220;-52
2022/03/15 13:34:05;;;;;;;8.15;5.65;;;;;;;;;;5113759;28;20656;-52
2022/03/15 13:36:32;;;;;;;6.70;5.38;;;;;;;;;;5112560;28;20701;-52
2022/03/15 13:39:03;;;;;;;6.18;4.82;;;;;;;;;;5113090;28;20203;-52
2022/03/15 13:41:36;;;;;;;5.38;4.88;;;;;;;;;;5113218;28;20195;-52
2022/03/15 13:44:04;;;;;;;5.88;4.78;;;;;;;;;;5114263;28;20277;-52
2022/03/15 13:46:34;;;;;;;6.13;4.68;;;;;;;;;;5113183;28;20234;-52
2022/03/15 13:49:02;;;;;;;5.35;4.85;;;;;;;;;;5113540;28;20191;-53
2022/03/15 13:51:32;;;;;;;5.00;4.53;;;;;;;;;;5113682;28;20195;-53
2022/03/15 13:54:07;;;;;;;5.65;4.55;;;;;;;;;;5113637;28;20498;-53
2022/03/15 13:56:40;;;;;;;5.95;4.60;;;;;;;;;;5112353;28;20199;-53
2022/03/15 13:59:09;;;;;;;5.35;4.05;;;;;;;;;;5115406;28;20203;-52
2022/03/15 14:01:38;;;;;;;6.68;4.25;;;;;;;;;;5116069;28;20211;-52
2022/03/15 14:04:05;;;;;;;4.85;4.32;;;;;;;;;;5115740;28;20219;-52
2022/03/15 14:06:35;;;;;;;4.28;3.78;;;;;;;;;;5117010;28;20209;-52
2022/03/15 14:09:04;;;;;;;5.65;4.03;;;;;;;;;;5117414;28;20309;-52
2022/03/15 14:11:32;;;;;;;4.60;4.00;;;;;;;;;;5116729;28;20202;-52
2022/03/15 14:14:06;;;;;;;4.47;4.07;;;;;;;;;;5116955;28;20199;-52
2022/03/15 14:16:38;;;;;;;5.35;3.95;;;;;;;;;;5115765;28;20205;-53
2022/03/15 14:19:07;;;;;;;4.35;3.47;;;;;;;;;;5115666;28;20289;-53
2022/03/15 14:21:36;;;;;;;3.92;3.53;;;;;;;;;;5115718;28;20287;-53
2022/03/15 14:24:04;;;;;;;4.28;3.83;;;;;;;;;;5116544;28;20527;-52
2022/03/15 14:26:33;;;;;;;5.00;4.00;;;;;;;;;;5116466;28;20209;-52
2022/03/15 14:29:04;;;;;;;3.63;3.33;;;;;;;;;;5115937;28;20714;-52
2022/03/15 14:31:40;;;;;;;5.05;3.40;;;;;;;;;;5116199;28;20217;-51
2022/03/15 14:34:09;;;;;;;3.63;3.10;;;;;;;;;;5116727;28;20319;-52
2022/03/15 14:36:39;;;;;;;3.60;3.10;;;;;;;;;;5116731;28;20209;-52
2022/03/15 14:39:11;;;;;;;3.63;3.00;;;;;;;;;;5115456;28;20203;-52
2022/03/15 14:41:40;;;;;;;3.92;3.20;;;;;;;;;;5115035;28;20205;-52
2022/03/15 14:44:10;;;;;;;3.35;3.05;;;;;;;;;;5115652;28;20223;-52
2022/03/15 14:46:38;;;;;;;4.20;3.20;;;;;;;;;;5116752;28;20299;-53
2022/03/15 14:49:07;;;;;;;3.85;3.38;;;;;;;;;;5116770;28;20206;-53